sensor_id;sensor_type;location;lat;lon;timestamp;pressure;altitude;pressure_sealevel;temperature;humidity
74372;BME280;62885;51.374;6.170;2023-12-29T00:01:55;63720.97;;;11.04;95.06
74372;BME280;62885;51.374;6.170;2023-12-29T00:04:20;63683.41;;;11.08;94.81
74372;BME280;62885;51.374;6.170;2023-12-29T00:06:45;63719.97;;;11.05;95.14
74372;BME280;62885;51.374;6.170;2023-12-29T00:09:11;63721.56;;;11.07;94.73
74372;BME280;62885;51.374;6.170;2023-12-29T00:11:37;63728.53;;;11.08;94.64
74372;BME280;62885;51.374;6.170;2023-12-29T00:14:03;63722.06;;;11.05;95.09
74372;BME280;62885;51.374;6.170;2023-12-29T00:16:28;63721.53;;;11.04;95.07
74372;BME280;62885;51.374;6.170;2023-12-29T00:18:53;63681.75;;;11.07;95.52
74372;BME280;62885;51.374;6.170;2023-12-29T00:21:19;63721.53;;;11.04;94.81
74372;BME280;62885;51.374;6.170;2023-12-29T00:23:44;63722.63;;;11.05;95.29
74372;BME280;62885;51.374;6.170;2023-12-29T00:26:10;63677.97;;;11.03;95.93
74372;BME280;62885;51.374;6.170;2023-12-29T00:28:35;63678.50;;;11.04;95.23
74372;BME280;62885;51.374;6.170;2023-12-29T00:31:05;63721.53;;;11.04;94.42
74372;BME280;62885;51.374;6.170;2023-12-29T00:33:30;63732.88;;;11.12;95.15
74372;BME280;62885;51.374;6.170;2023-12-29T00:35:57;63727.94;;;11.05;95.19
74372;BME280;62885;51.374;6.170;2023-12-29T00:38:22;63719.34;;;11.02;95.63
74372;BME280;62885;51.374;6.170;2023-12-29T00:40:47;63723.16;;;11.06;95.39
74372;BME280;62885;51.374;6.170;2023-12-29T00:43:12;63716.63;;;11.00;95.83
74372;BME280;62885;51.374;6.170;2023-12-29T00:45:38;63690.63;;;11.00;96.06
74372;BME280;62885;51.374;6.170;2023-12-29T00:48:03;63718.19;;;10.99;96.23
74372;BME280;62885;51.374;6.170;2023-12-29T00:50:29;63692.78;;;11.02;95.74
74372;BME280;62885;51.374;6.170;2023-12-29T00:52:54;63692.78;;;11.02;95.67
74372;BME280;62885;51.374;6.170;2023-12-29T00:55:20;63716.56;;;10.97;95.83
74372;BME280;62885;51.374;6.170;2023-12-29T00:57:45;63720.44;;;11.03;95.23
74372;BME280;62885;51.374;6.170;2023-12-29T01:00:12;63675.22;;;11.01;95.85
74372;BME280;62885;51.374;6.170;2023-12-29T01:02:38;63711.72;;;10.95;96.41
74372;BME280;62885;51.374;6.170;2023-12-29T01:05:04;63683.00;;;10.93;96.11
74372;BME280;62885;51.374;6.170;2023-12-29T01:07:32;63709.56;;;10.93;96.33
74372;BME280;62885;51.374;6.170;2023-12-29T01:09:57;63712.22;;;10.93;96.07
74372;BME280;62885;51.374;6.170;2023-12-29T01:12:23;63712.25;;;10.96;95.89
74372;BME280;62885;51.374;6.170;2023-12-29T01:14:48;63708.47;;;10.92;96.16
74372;BME280;62885;51.374;6.170;2023-12-29T01:17:13;63708.94;;;10.90;96.80
74372;BME280;62885;51.374;6.170;2023-12-29T01:19:39;63704.66;;;10.89;96.58
74372;BME280;62885;51.374;6.170;2023-12-29T01:22:04;63703.03;;;10.87;96.68
74372;BME280;62885;51.374;6.170;2023-12-29T01:24:30;63700.84;;;10.85;96.86
74372;BME280;62885;51.374;6.170;2023-12-29T01:26:55;63709.47;;;10.91;96.63
74372;BME280;62885;51.374;6.170;2023-12-29T01:29:21;63683.56;;;10.94;96.37
74372;BME280;62885;51.374;6.170;2023-12-29T01:31:46;63663.81;;;10.90;97.24
74372;BME280;62885;51.374;6.170;2023-12-29T01:34:12;63702.94;;;10.85;98.35
74372;BME280;62885;51.374;6.170;2023-12-29T01:36:38;63669.94;;;10.81;99.37
74372;BME280;62885;51.374;6.170;2023-12-29T01:39:03;63693.75;;;10.79;99.88
74372;BME280;62885;51.374;6.170;2023-12-29T01:41:29;63688.31;;;10.74;100.00
74372;BME280;62885;51.374;6.170;2023-12-29T01:46:28;63648.72;;;10.61;100.00
74372;BME280;62885;51.374;6.170;2023-12-29T01:48:54;63669.81;;;10.56;100.00
74372;BME280;62885;51.374;6.170;2023-12-29T01:51:21;63665.47;;;10.52;100.00
74372;BME280;62885;51.374;6.170;2023-12-29T01:53:52;63665.94;;;10.50;100.00
74372;BME280;62885;51.374;6.170;2023-12-29T01:56:19;63642.19;;;10.55;100.00
74372;BME280;62885;51.374;6.170;2023-12-29T01:58:45;63671.94;;;10.56;100.00
74372;BME280;62885;51.374;6.170;2023-12-29T02:01:14;63674.16;;;10.60;100.00
74372;BME280;62885;51.374;6.170;2023-12-29T02:03:40;63661.13;;;10.48;100.00
74372;BME280;62885;51.374;6.170;2023-12-29T02:06:06;63609.44;;;10.40;100.00
74372;BME280;62885;51.374;6.170;2023-12-29T02:08:33;63650.31;;;10.41;100.00
74372;BME280;62885;51.374;6.170;2023-12-29T02:10:58;63643.16;;;10.32;100.00
74372;BME280;62885;51.374;6.170;2023-12-29T02:13:24;63640.38;;;10.26;100.00
74372;BME280;62885;51.374;6.170;2023-12-29T02:15:54;63638.81;;;10.27;100.00
74372;BME280;62885;51.374;6.170;2023-12-29T02:18:25;63643.66;;;10.29;100.00
74372;BME280;62885;51.374;6.170;2023-12-29T02:20:52;63645.81;;;10.32;100.00
74372;BME280;62885;51.374;6.170;2023-12-29T02:23:17;63606.72;;;10.37;100.00
74372;BME280;62885;51.374;6.170;2023-12-29T02:25:45;63650.22;;;10.38;100.00
74372;BME280;62885;51.374;6.170;2023-12-29T02:28:18;63659.91;;;10.42;100.00
74372;BME280;62885;51.374;6.170;2023-12-29T02:30:46;63658.88;;;10.44;100.00
74372;BME280;62885;51.374;6.170;2023-12-29T02:33:18;63657.84;;;10.45;100.00
74372;BME280;62885;51.374;6.170;2023-12-29T02:35:45;63664.38;;;10.51;100.00
74372;BME280;62885;51.374;6.170;2023-12-29T02:38:12;63665.41;;;10.50;100.00
74372;BME280;62885;51.374;6.170;2023-12-29T02:40:38;63671.31;;;10.53;100.00
74372;BME280;62885;51.374;6.170;2023-12-29T02:43:07;63670.84;;;10.55;100.00
74372;BME280;62885;51.374;6.170;2023-12-29T02:45:33;63675.25;;;10.61;100.00
74372;BME280;62885;51.374;6.170;2023-12-29T02:47:58;63679.06;;;10.65;100.00
74372;BME280;62885;51.374;6.170;2023-12-29T02:50:24;63684.84;;;10.63;100.00
74372;BME280;62885;51.374;6.170;2023-12-29T02:52:49;63677.38;;;10.61;100.00
74372;BME280;62885;51.374;6.170;2023-12-29T02:55:14;63682.81;;;10.66;100.00
74372;BME280;62885;51.374;6.170;2023-12-29T02:57:40;63681.25;;;10.67;100.00
74372;BME280;62885;51.374;6.170;2023-12-29T03:00:06;63659.06;;;10.71;100.00
74372;BME280;62885;51.374;6.170;2023-12-29T03:02:31;63693.16;;;10.76;100.00
74372;BME280;62885;51.374;6.170;2023-12-29T03:04:57;63658.53;;;10.70;100.00
74372;BME280;62885;51.374;6.170;2023-12-29T03:07:23;63685.06;;;10.70;100.00
74372;BME280;62885;51.374;6.170;2023-12-29T03:09:48;63687.78;;;10.73;100.00
74372;BME280;62885;51.374;6.170;2023-12-29T03:12:14;63661.25;;;10.73;100.00
74372;BME280;62885;51.374;6.170;2023-12-29T03:14:39;63653.47;;;10.81;100.00
74372;BME280;62885;51.374;6.170;2023-12-29T03:17:04;63663.97;;;10.76;100.00
74372;BME280;62885;51.374;6.170;2023-12-29T03:19:30;63696.97;;;10.79;100.00
74372;BME280;62885;51.374;6.170;2023-12-29T03:21:55;63696.50;;;10.81;100.00
74372;BME280;62885;51.374;6.170;2023-12-29T03:24:20;63666.22;;;10.80;100.00
74372;BME280;62885;51.374;6.170;2023-12-29T03:26:48;63694.31;;;10.79;100.00
74372;BME280;62885;51.374;6.170;2023-12-29T03:29:13;63666.69;;;10.78;100.00
74372;BME280;62885;51.374;6.170;2023-12-29T03:31:39;63697.03;;;10.82;100.00
74372;BME280;62885;51.374;6.170;2023-12-29T03:34:07;63693.75;;;10.79;100.00
74372;BME280;62885;51.374;6.170;2023-12-29T03:36:33;63693.22;;;10.78;100.00
74372;BME280;62885;51.374;6.170;2023-12-29T03:38:58;63685.59;;;10.71;100.00
74372;BME280;62885;51.374;6.170;2023-12-29T03:41:23;63681.31;;;10.69;100.00
74372;BME280;62885;51.374;6.170;2023-12-29T03:43:49;63686.16;;;10.72;100.00
74372;BME280;62885;51.374;6.170;2023-12-29T03:46:21;63685.59;;;10.71;100.00
74372;BME280;62885;51.374;6.170;2023-12-29T03:48:47;63676.91;;;10.63;100.00
74372;BME280;62885;51.374;6.170;2023-12-29T03:51:13;63673.09;;;10.59;100.00
74372;BME280;62885;51.374;6.170;2023-12-29T03:53:39;63670.91;;;10.57;100.00
74372;BME280;62885;51.374;6.170;2023-12-29T03:56:07;63680.00;;;10.61;100.00
74372;BME280;62885;51.374;6.170;2023-12-29T03:58:34;63674.09;;;10.58;100.00
74372;BME280;62885;51.374;6.170;2023-12-29T04:01:00;63669.34;;;10.58;100.00
74372;BME280;62885;51.374;6.170;2023-12-29T04:03:25;63670.38;;;10.57;100.00
74372;BME280;62885;51.374;6.170;2023-12-29T04:05:50;63672.00;;;10.58;100.00
74372;BME280;62885;51.374;6.170;2023-12-29T04:08:16;63674.66;;;10.58;100.00
74372;BME280;62885;51.374;6.170;2023-12-29T04:10:41;63664.38;;;10.51;100.00
74372;BME280;62885;51.374;6.170;2023-12-29T04:13:06;63642.19;;;10.55;100.00
74372;BME280;62885;51.374;6.170;2023-12-29T04:15:32;63664.31;;;10.49;100.00
74372;BME280;62885;51.374;6.170;2023-12-29T04:17:57;63669.13;;;10.51;100.00
74372;BME280;62885;51.374;6.170;2023-12-29T04:20:23;63656.22;;;10.44;100.00
74372;BME280;62885;51.374;6.170;2023-12-29T04:22:49;63656.75;;;10.44;100.00
74372;BME280;62885;51.374;6.170;2023-12-29T04:25:15;63652.88;;;10.38;100.00
74372;BME280;62885;51.374;6.170;2023-12-29T04:27:41;63622.63;;;10.37;100.00
74372;BME280;62885;51.374;6.170;2023-12-29T04:30:07;63625.34;;;10.40;100.00
74372;BME280;62885;51.374;6.170;2023-12-29T04:32:32;63656.75;;;10.44;100.00
74372;BME280;62885;51.374;6.170;2023-12-29T04:34:57;63658.31;;;10.43;100.00
74372;BME280;62885;51.374;6.170;2023-12-29T04:37:23;63632.97;;;10.47;100.00
74372;BME280;62885;51.374;6.170;2023-12-29T04:39:48;63634.06;;;10.48;100.00
74372;BME280;62885;51.374;6.170;2023-12-29T04:42:14;63664.31;;;10.49;100.00
74372;BME280;62885;51.374;6.170;2023-12-29T04:44:39;63667.56;;;10.52;100.00
74372;BME280;62885;51.374;6.170;2023-12-29T04:47:05;63669.81;;;10.56;100.00
74372;BME280;62885;51.374;6.170;2023-12-29T04:49:30;63642.19;;;10.55;100.00
74372;BME280;62885;51.374;6.170;2023-12-29T04:51:55;63670.38;;;10.57;100.00
74372;BME280;62885;51.374;6.170;2023-12-29T04:54:21;63669.81;;;10.56;100.00
74372;BME280;62885;51.374;6.170;2023-12-29T04:56:46;63666.56;;;10.53;100.00
74372;BME280;62885;51.374;6.170;2023-12-29T04:59:11;63675.25;;;10.61;100.00
74372;BME280;62885;51.374;6.170;2023-12-29T05:01:37;63643.84;;;10.57;100.00
74372;BME280;62885;51.374;6.170;2023-12-29T05:04:02;63676.28;;;10.60;100.00
74372;BME280;62885;51.374;6.170;2023-12-29T05:06:27;63675.19;;;10.59;100.00
74372;BME280;62885;51.374;6.170;2023-12-29T05:08:53;63648.72;;;10.61;100.00
74372;BME280;62885;51.374;6.170;2023-12-29T05:11:18;63670.91;;;10.57;100.00
74372;BME280;62885;51.374;6.170;2023-12-29T05:13:43;63677.31;;;10.58;100.00
74372;BME280;62885;51.374;6.170;2023-12-29T05:16:09;63676.75;;;10.58;100.00
74372;BME280;62885;51.374;6.170;2023-12-29T05:18:34;63670.38;;;10.57;100.00
74372;BME280;62885;51.374;6.170;2023-12-29T05:21:00;63671.94;;;10.56;100.00
74372;BME280;62885;51.374;6.170;2023-12-29T05:23:25;63684.38;;;10.65;99.82
74372;BME280;62885;51.374;6.170;2023-12-29T05:25:51;63674.72;;;10.61;99.83
74372;BME280;62885;51.374;6.170;2023-12-29T05:28:16;63674.72;;;10.61;99.69
74372;BME280;62885;51.374;6.170;2023-12-29T05:30:42;63627.38;;;10.56;100.00
74372;BME280;62885;51.374;6.170;2023-12-29T05:33:07;63671.94;;;10.56;100.00
74372;BME280;62885;51.374;6.170;2023-12-29T05:35:34;63669.75;;;10.54;100.00
74372;BME280;62885;51.374;6.170;2023-12-29T05:37:59;63672.94;;;10.54;100.00
74372;BME280;62885;51.374;6.170;2023-12-29T05:40:24;63666.50;;;10.51;100.00
74372;BME280;62885;51.374;6.170;2023-12-29T05:42:50;63670.84;;;10.55;100.00
74372;BME280;62885;51.374;6.170;2023-12-29T05:45:16;63640.03;;;10.53;100.00
74372;BME280;62885;51.374;6.170;2023-12-29T05:47:42;63635.69;;;10.49;100.00
74372;BME280;62885;51.374;6.170;2023-12-29T05:50:08;63660.09;;;10.50;100.00
74372;BME280;62885;51.374;6.170;2023-12-29T05:52:34;63663.84;;;10.51;100.00
74372;BME280;62885;51.374;6.170;2023-12-29T05:54:59;63658.41;;;10.46;100.00
74372;BME280;62885;51.374;6.170;2023-12-29T05:57:25;63660.59;;;10.48;100.00
74372;BME280;62885;51.374;6.170;2023-12-29T05:59:50;63609.44;;;10.40;100.00
74372;BME280;62885;51.374;6.170;2023-12-29T06:02:15;63605.66;;;10.36;100.00
74372;BME280;62885;51.374;6.170;2023-12-29T06:04:41;63622.09;;;10.37;100.00
74372;BME280;62885;51.374;6.170;2023-12-29T06:07:06;63646.97;;;10.35;100.00
74372;BME280;62885;51.374;6.170;2023-12-29T06:09:32;63646.44;;;10.35;100.00
74372;BME280;62885;51.374;6.170;2023-12-29T06:11:57;63654.53;;;10.40;100.00
74372;BME280;62885;51.374;6.170;2023-12-29T06:14:22;63648.63;;;10.37;100.00
74372;BME280;62885;51.374;6.170;2023-12-29T06:16:48;63652.97;;;10.41;100.00
74372;BME280;62885;51.374;6.170;2023-12-29T06:19:13;63650.16;;;10.36;100.00
74372;BME280;62885;51.374;6.170;2023-12-29T06:21:42;63654.53;;;10.40;100.00
74372;BME280;62885;51.374;6.170;2023-12-29T06:24:11;63651.31;;;10.39;100.00
74372;BME280;62885;51.374;6.170;2023-12-29T06:26:37;63650.78;;;10.39;100.00
74372;BME280;62885;51.374;6.170;2023-12-29T06:29:07;63650.78;;;10.39;100.00
74372;BME280;62885;51.374;6.170;2023-12-29T06:31:33;63648.63;;;10.37;100.00
74372;BME280;62885;51.374;6.170;2023-12-29T06:34:00;63655.00;;;10.38;100.00
74372;BME280;62885;51.374;6.170;2023-12-29T06:36:26;63654.06;;;10.42;100.00
74372;BME280;62885;51.374;6.170;2023-12-29T06:38:51;63627.00;;;10.41;100.00
74372;BME280;62885;51.374;6.170;2023-12-29T06:41:18;63622.63;;;10.37;100.00
74372;BME280;62885;51.374;6.170;2023-12-29T06:43:44;63648.63;;;10.37;100.00
74372;BME280;62885;51.374;6.170;2023-12-29T06:46:09;63637.72;;;10.26;100.00
74372;BME280;62885;51.374;6.170;2023-12-29T06:48:36;63609.03;;;10.24;100.00
74372;BME280;62885;51.374;6.170;2023-12-29T06:51:01;63629.56;;;10.19;100.00
74372;BME280;62885;51.374;6.170;2023-12-29T06:53:27;63624.59;;;10.12;100.00
74372;BME280;62885;51.374;6.170;2023-12-29T06:55:52;63627.28;;;10.14;100.00
74372;BME280;62885;51.374;6.170;2023-12-29T06:58:17;63574.63;;;10.07;100.00
74372;BME280;62885;51.374;6.170;2023-12-29T07:00:43;63590.06;;;10.09;100.00
74372;BME280;62885;51.374;6.170;2023-12-29T07:03:08;63618.06;;;10.06;100.00
74372;BME280;62885;51.374;6.170;2023-12-29T07:05:34;63610.53;;;10.01;100.00
74372;BME280;62885;51.374;6.170;2023-12-29T07:07:59;63609.44;;;10.00;100.00
74372;BME280;62885;51.374;6.170;2023-12-29T07:10:25;63611.03;;;10.02;100.00
74372;BME280;62885;51.374;6.170;2023-12-29T07:12:53;63612.06;;;10.00;100.00
74372;BME280;62885;51.374;6.170;2023-12-29T07:15:18;63614.88;;;10.05;100.00
74372;BME280;62885;51.374;6.170;2023-12-29T07:17:43;63614.78;;;10.03;100.00
74372;BME280;62885;51.374;6.170;2023-12-29T07:20:09;63615.81;;;10.01;100.00
74372;BME280;62885;51.374;6.170;2023-12-29T07:22:34;63610.03;;;10.03;100.00
74372;BME280;62885;51.374;6.170;2023-12-29T07:25:00;63588.34;;;10.05;100.00
74372;BME280;62885;51.374;6.170;2023-12-29T07:27:25;63621.31;;;10.09;100.00
74372;BME280;62885;51.374;6.170;2023-12-29T07:29:51;63607.25;;;9.98;100.00
74372;BME280;62885;51.374;6.170;2023-12-29T07:32:16;63615.94;;;10.06;100.00
74372;BME280;62885;51.374;6.170;2023-12-29T07:34:42;63587.28;;;10.04;100.00
74372;BME280;62885;51.374;6.170;2023-12-29T07:37:09;63612.06;;;10.00;100.00
74372;BME280;62885;51.374;6.170;2023-12-29T07:39:36;63615.94;;;10.06;100.00
74372;BME280;62885;51.374;6.170;2023-12-29T07:42:02;63614.25;;;10.02;100.00
74372;BME280;62885;51.374;6.170;2023-12-29T07:44:28;63582.97;;;10.03;100.00
74372;BME280;62885;51.374;6.170;2023-12-29T07:46:57;63619.16;;;10.07;100.00
74372;BME280;62885;51.374;6.170;2023-12-29T07:49:22;63618.13;;;10.08;100.00
74372;BME280;62885;51.374;6.170;2023-12-29T07:51:48;63620.22;;;10.08;100.00
74372;BME280;62885;51.374;6.170;2023-12-29T07:54:13;63619.75;;;10.10;100.00
74372;BME280;62885;51.374;6.170;2023-12-29T07:56:38;63592.69;;;10.09;100.00
74372;BME280;62885;51.374;6.170;2023-12-29T07:59:04;63618.13;;;10.08;100.00
74372;BME280;62885;51.374;6.170;2023-12-29T08:01:30;63587.28;;;10.04;100.00
74372;BME280;62885;51.374;6.170;2023-12-29T08:03:55;63624.59;;;10.12;100.00
74372;BME280;62885;51.374;6.170;2023-12-29T08:06:20;63615.94;;;10.06;100.00
74372;BME280;62885;51.374;6.170;2023-12-29T08:08:46;63609.34;;;9.98;100.00
74372;BME280;62885;51.374;6.170;2023-12-29T08:11:17;63578.56;;;9.96;100.00
74372;BME280;62885;51.374;6.170;2023-12-29T08:13:44;63576.94;;;9.95;100.00
74372;BME280;62885;51.374;6.170;2023-12-29T08:16:10;63608.25;;;9.97;100.00
74372;BME280;62885;51.374;6.170;2023-12-29T08:18:35;63606.69;;;9.98;100.00
74372;BME280;62885;51.374;6.170;2023-12-29T08:21:01;63605.00;;;9.94;100.00
74372;BME280;62885;51.374;6.170;2023-12-29T08:23:26;63610.44;;;9.99;100.00
74372;BME280;62885;51.374;6.170;2023-12-29T08:25:52;63608.88;;;10.00;100.00
74372;BME280;62885;51.374;6.170;2023-12-29T08:28:18;63604.53;;;9.96;100.00
74372;BME280;62885;51.374;6.170;2023-12-29T08:30:43;63605.59;;;9.97;100.00
74372;BME280;62885;51.374;6.170;2023-12-29T08:33:11;63608.19;;;9.94;100.00
74372;BME280;62885;51.374;6.170;2023-12-29T08:35:39;63609.34;;;9.98;100.00
74372;BME280;62885;51.374;6.170;2023-12-29T08:38:04;63606.78;;;10.00;100.00
74372;BME280;62885;51.374;6.170;2023-12-29T08:40:29;63620.22;;;10.08;100.00
74372;BME280;62885;51.374;6.170;2023-12-29T08:42:55;63590.00;;;10.07;100.00
74372;BME280;62885;51.374;6.170;2023-12-29T08:45:20;63608.34;;;9.99;100.00
74372;BME280;62885;51.374;6.170;2023-12-29T08:47:45;63568.63;;;10.02;100.00
74372;BME280;62885;51.374;6.170;2023-12-29T08:50:11;63588.91;;;10.06;100.00
74372;BME280;62885;51.374;6.170;2023-12-29T08:52:36;63609.44;;;10.00;100.00
74372;BME280;62885;51.374;6.170;2023-12-29T08:55:02;63617.50;;;10.05;100.00
74372;BME280;62885;51.374;6.170;2023-12-29T08:57:27;63618.59;;;10.06;100.00
74372;BME280;62885;51.374;6.170;2023-12-29T08:59:53;63615.41;;;10.06;100.00
74372;BME280;62885;51.374;6.170;2023-12-29T09:02:18;63616.41;;;10.04;100.00
74372;BME280;62885;51.374;6.170;2023-12-29T09:04:43;63616.88;;;10.02;100.00
74372;BME280;62885;51.374;6.170;2023-12-29T09:07:09;63616.97;;;10.05;100.00
74372;BME280;62885;51.374;6.170;2023-12-29T09:09:34;63618.06;;;10.06;100.00
74372;BME280;62885;51.374;6.170;2023-12-29T09:11:59;63611.66;;;10.05;100.00
74372;BME280;62885;51.374;6.170;2023-12-29T09:14:25;63616.50;;;10.07;100.00
74372;BME280;62885;51.374;6.170;2023-12-29T09:16:50;63622.41;;;10.10;100.00
74372;BME280;62885;51.374;6.170;2023-12-29T09:19:16;63618.13;;;10.08;100.00
74372;BME280;62885;51.374;6.170;2023-12-29T09:21:41;63613.78;;;10.04;100.00
74372;BME280;62885;51.374;6.170;2023-12-29T09:24:06;63629.34;;;10.11;100.00
74372;BME280;62885;51.374;6.170;2023-12-29T09:26:32;63585.09;;;10.02;100.00
74372;BME280;62885;51.374;6.170;2023-12-29T09:28:57;63612.63;;;10.01;100.00
74372;BME280;62885;51.374;6.170;2023-12-29T09:31:23;63612.06;;;10.00;100.00
74372;BME280;62885;51.374;6.170;2023-12-29T09:33:48;63609.34;;;9.98;100.00
74372;BME280;62885;51.374;6.170;2023-12-29T09:36:13;63609.97;;;10.01;100.00
74372;BME280;62885;51.374;6.170;2023-12-29T09:38:39;63579.66;;;9.97;100.00
74372;BME280;62885;51.374;6.170;2023-12-29T09:41:05;63608.25;;;9.97;100.00
74372;BME280;62885;51.374;6.170;2023-12-29T09:43:35;63584.00;;;10.01;100.00
74372;BME280;62885;51.374;6.170;2023-12-29T09:46:01;63623.56;;;10.13;100.00
74372;BME280;62885;51.374;6.170;2023-12-29T09:48:28;63614.78;;;10.03;100.00
74372;BME280;62885;51.374;6.170;2023-12-29T09:50:54;63606.16;;;9.97;100.00
74372;BME280;62885;51.374;6.170;2023-12-29T09:53:20;63585.09;;;10.02;100.00
74372;BME280;62885;51.374;6.170;2023-12-29T09:55:48;63605.06;;;9.96;100.00
74372;BME280;62885;51.374;6.170;2023-12-29T09:58:15;63604.47;;;9.93;100.00
74372;BME280;62885;51.374;6.170;2023-12-29T10:00:42;63596.91;;;9.88;100.00
74372;BME280;62885;51.374;6.170;2023-12-29T10:03:08;63601.19;;;9.90;100.00
74372;BME280;62885;51.374;6.170;2023-12-29T10:05:34;63596.91;;;9.88;100.00
74372;BME280;62885;51.374;6.170;2023-12-29T10:08:02;63602.28;;;9.91;100.00
74372;BME280;62885;51.374;6.170;2023-12-29T10:10:31;63607.66;;;9.94;100.00
74372;BME280;62885;51.374;6.170;2023-12-29T10:12:58;63606.63;;;9.95;100.00
74372;BME280;62885;51.374;6.170;2023-12-29T10:15:35;63576.41;;;9.94;100.00
74372;BME280;62885;51.374;6.170;2023-12-29T10:23:07;63630.03;;;10.17;100.00
74372;BME280;62885;51.374;6.170;2023-12-29T10:25:33;63634.38;;;10.21;100.00
74372;BME280;62885;51.374;6.170;2023-12-29T10:27:59;63641.00;;;10.29;100.00
74372;BME280;62885;51.374;6.170;2023-12-29T10:30:24;63612.28;;;10.27;100.00
74372;BME280;62885;51.374;6.170;2023-12-29T10:32:52;63605.09;;;10.36;100.00
74372;BME280;62885;51.374;6.170;2023-12-29T10:35:17;63651.88;;;10.40;100.00
74372;BME280;62885;51.374;6.170;2023-12-29T10:37:43;63624.25;;;10.39;100.00
74372;BME280;62885;51.374;6.170;2023-12-29T10:40:09;63652.97;;;10.41;100.00
74372;BME280;62885;51.374;6.170;2023-12-29T10:42:51;63650.78;;;10.39;100.00
74372;BME280;62885;51.374;6.170;2023-12-29T10:45:17;63659.41;;;10.44;100.00
74372;BME280;62885;51.374;6.170;2023-12-29T10:47:46;63656.69;;;10.42;100.00
74372;BME280;62885;51.374;6.170;2023-12-29T10:50:11;63659.41;;;10.44;100.00
74372;BME280;62885;51.374;6.170;2023-12-29T10:52:38;63665.41;;;10.50;100.00
74372;BME280;62885;51.374;6.170;2023-12-29T10:55:07;63664.38;;;10.51;100.00
74372;BME280;62885;51.374;6.170;2023-12-29T10:57:34;63668.13;;;10.52;100.00
74372;BME280;62885;51.374;6.170;2023-12-29T11:00:00;63670.84;;;10.55;100.00
74372;BME280;62885;51.374;6.170;2023-12-29T11:02:26;63666.56;;;10.53;100.00
74372;BME280;62885;51.374;6.170;2023-12-29T11:05:01;63665.41;;;10.50;100.00
74372;BME280;62885;51.374;6.170;2023-12-29T11:07:40;63668.66;;;10.53;100.00
74372;BME280;62885;51.374;6.170;2023-12-29T11:10:07;63670.78;;;10.52;100.00
74372;BME280;62885;51.374;6.170;2023-12-29T11:12:34;63679.53;;;10.63;100.00
74372;BME280;62885;51.374;6.170;2023-12-29T11:15:07;63681.66;;;10.62;100.00
74372;BME280;62885;51.374;6.170;2023-12-29T11:17:34;63687.22;;;10.73;100.00
74372;BME280;62885;51.374;6.170;2023-12-29T11:20:01;63661.25;;;10.73;100.00
74372;BME280;62885;51.374;6.170;2023-12-29T11:22:32;63691.03;;;10.76;100.00
74372;BME280;62885;51.374;6.170;2023-12-29T11:24:58;63689.41;;;10.75;100.00
74372;BME280;62885;51.374;6.170;2023-12-29T11:27:29;63696.50;;;10.81;100.00
74372;BME280;62885;51.374;6.170;2023-12-29T11:29:59;63694.78;;;10.77;100.00
74372;BME280;62885;51.374;6.170;2023-12-29T11:32:48;63695.31;;;10.78;100.00
74372;BME280;62885;51.374;6.170;2023-12-29T11:40:25;63705.69;;;10.87;100.00
74372;BME280;62885;51.374;6.170;2023-12-29T11:42:54;63697.59;;;10.82;100.00
74372;BME280;62885;51.374;6.170;2023-12-29T11:45:31;63673.22;;;10.84;100.00
74372;BME280;62885;51.374;6.170;2023-12-29T11:48:02;63703.63;;;10.90;100.00
74372;BME280;62885;51.374;6.170;2023-12-29T11:50:33;63701.31;;;10.83;100.00
74372;BME280;62885;51.374;6.170;2023-12-29T11:52:59;63694.84;;;10.80;100.00
74372;BME280;62885;51.374;6.170;2023-12-29T11:55:35;63701.84;;;10.84;100.00
74372;BME280;62885;51.374;6.170;2023-12-29T11:58:01;63699.75;;;10.84;100.00
74372;BME280;62885;51.374;6.170;2023-12-29T12:03:19;63668.31;;;10.80;100.00
74372;BME280;62885;51.374;6.170;2023-12-29T12:05:49;63688.88;;;10.74;100.00
74372;BME280;62885;51.374;6.170;2023-12-29T12:08:28;63694.78;;;10.77;100.00
74372;BME280;62885;51.374;6.170;2023-12-29T12:10:54;63658.53;;;10.70;100.00
74372;BME280;62885;51.374;6.170;2023-12-29T12:13:57;63670.91;;;10.57;100.00
74372;BME280;62885;51.374;6.170;2023-12-29T12:19:07;63663.28;;;10.50;100.00
74372;BME280;62885;51.374;6.170;2023-12-29T12:21:32;63661.03;;;10.46;100.00
74372;BME280;62885;51.374;6.170;2023-12-29T12:23:58;63651.31;;;10.39;100.00
74372;BME280;62885;51.374;6.170;2023-12-29T12:26:25;63663.28;;;10.50;100.00
74372;BME280;62885;51.374;6.170;2023-12-29T12:28:53;63660.59;;;10.48;100.00
74372;BME280;62885;51.374;6.170;2023-12-29T12:31:19;63623.59;;;10.53;100.00
74372;BME280;62885;51.374;6.170;2023-12-29T12:33:56;63667.56;;;10.52;100.00
74372;BME280;62885;51.374;6.170;2023-12-29T12:36:22;63659.50;;;10.47;100.00
74372;BME280;62885;51.374;6.170;2023-12-29T12:39:06;63659.97;;;10.45;100.00
74372;BME280;62885;51.374;6.170;2023-12-29T12:41:32;63661.66;;;10.49;100.00
74372;BME280;62885;51.374;6.170;2023-12-29T12:44:08;63659.50;;;10.47;100.00
74372;BME280;62885;51.374;6.170;2023-12-29T12:46:35;63670.84;;;10.55;100.00
74372;BME280;62885;51.374;6.170;2023-12-29T12:49:04;63627.91;;;10.57;100.00
74372;BME280;62885;51.374;6.170;2023-12-29T12:51:31;63630.09;;;10.59;100.00
74372;BME280;62885;51.374;6.170;2023-12-29T12:53:57;63677.91;;;10.61;100.00
74372;BME280;62885;51.374;6.170;2023-12-29T12:56:23;63636.63;;;10.65;100.00
74372;BME280;62885;51.374;6.170;2023-12-29T12:58:56;63688.81;;;10.72;100.00
74372;BME280;62885;51.374;6.170;2023-12-29T13:01:22;63681.78;;;10.67;100.00
74372;BME280;62885;51.374;6.170;2023-12-29T13:03:47;63682.88;;;10.68;100.00
74372;BME280;62885;51.374;6.170;2023-12-29T13:06:13;63676.91;;;10.63;100.00
74372;BME280;62885;51.374;6.170;2023-12-29T13:08:39;63652.00;;;10.64;100.00